Time;durP1;ratioP1;P1;durP2;ratioP2;P2;SDS_P1;SDS_P2;PMS_P1;PMS_P2;Temp;Humidity;BMP_temperature;BMP_pressure;BME280_temperature;BME280_humidity;BME280_pressure;Samples;Min_cycle;Max_cycle;Signal;HPM_P1;HPM_P2
2023/12/05 00:01:03;;;;;;;12.80;8.60;;;3.30;99.90;;;3.13;67.64;95380.53;4966932;28;20597;-65
2023/12/05 00:03:32;;;;;;;18.33;9.93;;;3.40;99.90;;;3.18;67.67;95377.69;4964207;28;20658;-65
2023/12/05 00:05:59;;;;;;;19.03;10.07;;;3.40;99.90;;;3.20;67.08;95376.66;4967415;28;20475;-65
2023/12/05 00:08:26;;;;;;;19.00;9.40;;;3.40;99.90;;;3.22;67.30;95382.63;4965962;28;20482;-66
2023/12/05 00:10:54;;;;;;;18.17;9.20;;;3.40;99.90;;;3.24;66.87;95398.13;4966871;28;21074;-65
2023/12/05 00:13:21;;;;;;;14.90;9.07;;;3.50;99.90;;;3.25;68.57;95383.38;4966428;28;20968;-64
2023/12/05 00:15:49;;;;;;;13.10;8.70;;;3.50;99.90;;;3.27;66.73;95394.50;4966774;28;20479;-65
2023/12/05 00:18:16;;;;;;;15.27;10.37;;;3.50;99.90;;;3.31;67.06;95393.44;4971667;28;20482;-65
2023/12/05 00:20:45;;;;;;;15.83;9.73;;;3.50;99.90;;;3.34;68.15;95393.28;4968872;28;20479;-65
2023/12/05 00:23:13;;;;;;;19.43;9.67;;;3.50;99.90;;;3.37;67.09;95388.75;4969130;28;20495;-64
2023/12/05 00:25:40;;;;;;;14.13;9.03;;;3.60;99.90;;;3.38;67.03;95400.81;4969240;28;20543;-64
2023/12/05 00:28:07;;;;;;;14.80;9.47;;;3.60;99.90;;;3.37;66.95;95393.09;4965057;28;20537;-65
2023/12/05 00:30:35;;;;;;;14.30;9.80;;;3.60;99.90;;;3.38;67.97;95389.59;4966557;28;20537;-57
2023/12/05 00:33:03;;;;;;;12.57;9.30;;;3.60;99.90;;;3.35;68.40;95393.19;4965940;28;20463;-58
2023/12/05 00:35:30;;;;;;;13.30;9.23;;;3.60;99.90;;;3.38;67.31;95400.00;4967530;28;21123;-58
2023/12/05 00:37:59;;;;;;;14.30;8.73;;;3.60;99.90;;;3.37;68.01;95390.50;4963739;28;20451;-58
2023/12/05 00:40:29;;;;;;;14.43;9.20;;;3.60;99.90;;;3.41;67.69;95399.84;4964319;28;20600;-58
2023/12/05 00:42:57;;;;;;;14.67;8.40;;;3.60;99.90;;;3.43;67.05;95397.16;4967180;28;20502;-59
2023/12/05 00:45:25;;;;;;;8.10;6.83;;;3.70;99.90;;;3.44;67.74;95397.06;4965780;28;20479;-64
2023/12/05 00:47:54;;;;;;;8.47;7.60;;;3.70;99.90;;;3.45;67.38;95390.09;4969308;28;20472;-58
2023/12/05 00:50:21;;;;;;;10.10;6.90;;;3.70;99.90;;;3.45;67.22;95390.09;4966151;28;20545;-60
2023/12/05 00:52:48;;;;;;;6.77;6.07;;;3.70;99.90;;;3.46;67.68;95394.38;4965450;28;20482;-57
2023/12/05 00:55:17;;;;;;;8.53;6.67;;;3.70;99.90;;;3.46;67.63;95395.22;4966492;28;21032;-57
2023/12/05 00:57:44;;;;;;;7.10;6.20;;;3.70;99.90;;;3.44;68.39;95386.66;4963864;28;21074;-58
2023/12/05 01:00:19;;;;;;;6.70;6.00;;;3.70;99.90;;;3.45;67.57;95395.28;4966865;28;21005;-64
2023/12/05 01:02:49;;;;;;;8.67;7.27;;;3.70;99.90;;;3.46;67.54;95377.00;4952241;28;20456;-57
2023/12/05 01:05:16;;;;;;;9.30;5.40;;;3.70;99.90;;;3.48;66.73;95380.34;4963898;28;20477;-64
2023/12/05 01:07:44;;;;;;;10.37;5.37;;;3.70;99.90;;;3.48;66.88;95380.34;4964585;28;20531;-65
2023/12/05 01:10:12;;;;;;;6.13;5.23;;;3.70;99.90;;;3.45;66.85;95374.50;4964040;28;20960;-64
2023/12/05 01:12:40;;;;;;;7.00;6.30;;;3.70;99.90;;;3.39;67.54;95371.31;4964591;28;20495;-65
2023/12/05 01:15:08;;;;;;;7.93;5.77;;;3.70;99.90;;;3.39;67.77;95370.44;4962255;28;20550;-64
2023/12/05 01:17:35;;;;;;;7.53;6.30;;;3.60;99.90;;;3.40;67.16;95372.16;4964295;28;20644;-65
2023/12/05 01:20:06;;;;;;;5.50;4.80;;;3.60;99.90;;;3.37;66.94;95367.94;4965684;28;21046;-64
2023/12/05 01:22:33;;;;;;;12.27;6.37;;;3.60;99.90;;;3.35;66.97;95355.97;4963866;28;20566;-65
2023/12/05 01:25:01;;;;;;;8.33;5.70;;;3.60;99.90;;;3.34;66.88;95368.09;4968285;28;20633;-65
2023/12/05 01:27:28;;;;;;;6.70;6.03;;;3.60;99.90;;;3.35;66.47;95355.97;4965556;28;20456;-65
2023/12/05 01:29:57;;;;;;;6.43;5.10;;;3.60;99.90;;;3.35;66.57;95348.16;4968326;28;21195;-64
2023/12/05 01:32:24;;;;;;;7.17;5.30;;;3.60;99.90;;;3.34;66.37;95349.91;4966444;28;20519;-65
2023/12/05 01:34:51;;;;;;;5.57;4.83;;;3.60;99.90;;;3.33;66.11;95350.00;4965440;28;20491;-65
2023/12/05 01:37:19;;;;;;;10.70;5.07;;;3.60;99.90;;;3.33;66.34;95352.59;4966397;28;20937;-65
2023/12/05 01:39:46;;;;;;;9.93;5.43;;;3.60;99.90;;;3.32;65.29;95349.16;4963336;28;20594;-64
2023/12/05 01:42:13;;;;;;;5.73;5.13;;;3.60;99.90;;;3.34;65.81;95343.88;4965535;28;21011;-64
2023/12/05 01:44:41;;;;;;;10.63;4.53;;;3.60;99.90;;;3.33;65.50;95339.59;4963614;28;20988;-64
2023/12/05 01:47:09;;;;;;;10.27;6.13;;;3.60;99.90;;;3.30;65.18;95338.03;4965287;28;20558;-65
2023/12/05 01:49:37;;;;;;;9.80;4.87;;;3.60;99.90;;;3.29;65.56;95336.31;4965868;28;20545;-65
2023/12/05 01:52:05;;;;;;;7.93;5.33;;;3.60;99.90;;;3.28;64.81;95331.22;4964215;28;20498;-64
2023/12/05 01:54:33;;;;;;;5.00;4.37;;;3.50;99.90;;;3.26;64.81;95333.06;4965556;28;20471;-65
2023/12/05 01:57:00;;;;;;;6.73;4.87;;;3.50;99.90;;;3.27;65.14;95334.72;4966674;28;20458;-65
2023/12/05 01:59:28;;;;;;;6.27;4.50;;;3.50;99.90;;;3.26;65.17;95333.06;4965271;28;20475;-65
2023/12/05 02:01:55;;;;;;;6.90;5.20;;;3.50;99.90;;;3.23;64.50;95340.09;4963758;28;20447;-64
2023/12/05 02:04:24;;;;;;;5.60;4.67;;;3.50;99.90;;;3.21;64.81;95334.16;4960459;28;20902;-63
2023/12/05 02:06:51;;;;;;;7.07;4.97;;;3.50;99.90;;;3.21;64.96;95326.34;4965504;28;20514;-65
2023/12/05 02:09:19;;;;;;;6.40;4.73;;;3.50;99.90;;;3.23;64.54;95342.69;4963300;28;20475;-65
2023/12/05 02:11:46;;;;;;;7.10;4.17;;;3.50;99.90;;;3.24;64.45;95330.56;4965469;28;20498;-58
2023/12/05 02:14:14;;;;;;;6.90;5.10;;;3.50;99.90;;;3.22;64.05;95338.44;4965926;28;21009;-58
2023/12/05 02:16:45;;;;;;;5.20;4.60;;;3.50;99.90;;;3.26;64.82;95320.06;4962205;28;20483;-57
2023/12/05 02:19:32;;;;;;;9.10;5.60;;;3.50;99.90;;;3.29;64.46;95309.50;4964661;28;20516;-57
2023/12/05 02:22:00;;;;;;;10.27;8.10;;;3.50;99.90;;;3.27;64.07;95299.19;4965741;28;20475;-57
2023/12/05 02:24:39;;;;;;;6.90;5.27;;;3.50;99.90;;;3.27;64.56;95309.59;4965059;28;20468;-58
2023/12/05 02:27:13;;;;;;;5.40;4.53;;;3.50;99.90;;;3.26;64.48;95301.88;4964097;28;20845;-57
2023/12/05 02:29:49;;;;;;;6.27;5.43;;;3.50;99.90;;;3.21;64.16;95276.97;4968497;28;20463;-58
2023/12/05 02:32:17;;;;;;;5.30;4.80;;;3.50;99.90;;;3.20;64.62;95282.25;4964853;28;20976;-58
2023/12/05 02:34:44;;;;;;;5.83;5.23;;;3.40;99.90;;;3.18;63.89;95284.94;4968444;28;20494;-59
2023/12/05 02:37:19;;;;;;;6.83;5.20;;;3.40;99.90;;;3.19;64.79;95276.22;4969965;28;20547;-58
2023/12/05 02:39:50;;;;;;;10.47;5.77;;;3.40;99.90;;;3.19;64.53;95273.63;4963906;28;20481;-57
2023/12/05 02:42:17;;;;;;;5.67;5.07;;;3.40;99.90;;;3.23;63.81;95279.47;4970359;28;20558;-59
2023/12/05 02:44:50;;;;;;;7.00;5.73;;;3.40;99.90;;;3.25;64.17;95269.81;4966980;28;20467;-58
2023/12/05 02:47:19;;;;;;;8.17;5.67;;;3.50;99.90;;;3.28;63.72;95266.22;4967549;28;20507;-58
2023/12/05 02:49:46;;;;;;;8.17;5.70;;;3.50;99.90;;;3.31;63.90;95268.66;4968249;28;20467;-57
2023/12/05 02:52:14;;;;;;;7.13;5.30;;;3.50;99.90;;;3.31;63.29;95253.88;4964826;28;20953;-57
2023/12/05 02:54:41;;;;;;;5.90;4.83;;;3.50;99.90;;;3.28;63.96;95253.22;4968485;28;20481;-57
2023/12/05 02:57:08;;;;;;;5.53;5.03;;;3.50;99.90;;;3.23;63.47;95256.91;4966188;28;20476;-57
2023/12/05 02:59:36;;;;;;;13.73;5.47;;;3.50;99.90;;;3.18;63.84;95269.34;4967646;28;20478;-58
2023/12/05 03:02:05;;;;;;;5.07;4.53;;;3.40;99.90;;;3.18;64.09;95265.91;4969440;28;21242;-58
2023/12/05 03:04:32;;;;;;;6.43;5.30;;;3.40;99.90;;;3.18;64.38;95261.53;4966024;28;20912;-58
2023/12/05 03:06:59;;;;;;;8.40;5.03;;;3.40;99.90;;;3.18;63.46;95265.91;4968342;28;20456;-58
2023/12/05 03:09:26;;;;;;;5.90;5.30;;;3.40;99.90;;;3.12;64.02;95267.06;4968991;28;20488;-58
2023/12/05 03:11:54;;;;;;;7.97;5.50;;;3.40;99.90;;;3.10;64.16;95260.28;4967740;28;20495;-58
2023/12/05 03:14:21;;;;;;;5.57;5.07;;;3.40;99.90;;;3.08;63.71;95252.56;4966439;28;21063;-57
2023/12/05 03:16:48;;;;;;;6.43;4.80;;;3.30;99.90;;;3.09;63.90;95267.25;4968442;28;21027;-57
2023/12/05 03:19:18;;;;;;;5.10;4.60;;;3.30;99.90;;;3.10;63.85;95271.53;4969161;28;20471;-58
2023/12/05 03:21:46;;;;;;;6.70;5.50;;;3.40;99.90;;;3.13;63.24;95276.56;4965816;28;20472;-58
2023/12/05 03:24:13;;;;;;;8.83;5.40;;;3.40;99.90;;;3.13;63.36;95273.09;4967886;28;20563;-59
2023/12/05 03:26:40;;;;;;;7.83;5.80;;;3.40;99.90;;;3.13;63.49;95273.97;4966129;28;20454;-56
2023/12/05 03:29:07;;;;;;;6.63;5.90;;;3.40;99.90;;;3.18;63.70;95273.72;4967755;28;20857;-59
2023/12/05 03:31:36;;;;;;;7.53;6.10;;;3.40;99.90;;;3.25;63.66;95263.81;4967781;28;20529;-58
2023/12/05 03:34:03;;;;;;;9.57;6.10;;;3.50;99.90;;;3.33;63.95;95254.66;4968820;28;20514;-58
2023/12/05 03:36:32;;;;;;;10.70;5.40;;;3.50;99.90;;;3.42;63.91;95250.69;4968385;28;20467;-57
2023/12/05 03:38:59;;;;;;;6.50;5.13;;;3.60;99.90;;;3.47;63.42;95256.47;4966278;28;20526;-57
2023/12/05 03:41:26;;;;;;;9.70;5.30;;;3.60;99.90;;;3.53;63.28;95253.53;4967611;28;20561;-59
2023/12/05 03:43:53;;;;;;;6.70;5.83;;;3.70;99.90;;;3.57;63.00;95264.59;4969069;28;20562;-59
2023/12/05 03:46:21;;;;;;;6.97;5.57;;;3.70;99.60;;;3.59;62.40;95270.53;4963933;28;21160;-58
2023/12/05 03:48:48;;;;;;;7.63;5.17;;;3.80;99.50;;;3.59;62.33;95265.31;4967231;28;20447;-58
2023/12/05 03:51:15;;;;;;;16.20;5.97;;;3.80;99.30;;;3.57;62.54;95270.63;4965266;28;20482;-58
2023/12/05 03:53:44;;;;;;;6.83;6.00;;;3.80;99.40;;;3.59;62.48;95267.94;4966285;28;20487;-59
2023/12/05 03:56:12;;;;;;;7.93;6.27;;;3.80;99.20;;;3.57;62.50;95257.59;4964907;28;20517;-59
2023/12/05 03:58:41;;;;;;;6.53;5.57;;;3.80;99.20;;;3.57;62.95;95252.41;4966892;28;20469;-58
2023/12/05 04:01:08;;;;;;;9.27;5.87;;;3.80;99.50;;;3.66;62.49;95258.03;4964370;28;20538;-58
2023/12/05 04:03:36;;;;;;;8.10;5.37;;;3.80;99.50;;;3.67;62.08;95254.47;4964989;28;20467;-58
2023/12/05 04:06:03;;;;;;;8.90;5.60;;;3.90;98.90;;;3.65;62.29;95249.38;4966875;28;20503;-58
2023/12/05 04:08:30;;;;;;;8.20;6.13;;;3.90;98.90;;;3.64;62.35;95242.50;4964632;28;20443;-59
2023/12/05 04:10:59;;;;;;;8.10;5.67;;;3.90;98.80;;;3.64;61.93;95245.13;4966734;28;20467;-56
2023/12/05 04:13:26;;;;;;;7.63;5.80;;;3.80;98.70;;;3.62;61.86;95248.72;4967736;28;22212;-57
2023/12/05 04:15:54;;;;;;;9.40;5.30;;;3.80;98.70;;;3.62;62.12;95246.13;4965235;28;20495;-57
2023/12/05 04:18:21;;;;;;;8.20;5.83;;;3.80;98.70;;;3.59;62.29;95247.13;4967412;28;20456;-58
2023/12/05 04:20:48;;;;;;;7.53;5.90;;;3.80;98.70;;;3.60;62.04;95243.59;4968117;28;20859;-57
2023/12/05 04:23:16;;;;;;;8.60;6.40;;;3.80;98.80;;;3.65;61.87;95251.16;4966638;28;20486;-57
2023/12/05 04:25:43;;;;;;;8.30;6.20;;;3.80;98.80;;;3.68;61.93;95243.16;4968292;28;20526;-57
2023/12/05 04:28:12;;;;;;;65.13;30.40;;;3.90;98.80;;;3.70;61.36;95231.75;4965603;28;20538;-57
2023/12/05 04:30:39;;;;;;;14.57;7.43;;;3.90;98.70;;;3.70;61.69;95233.50;4967581;28;20471;-59
2023/12/05 04:33:07;;;;;;;9.80;6.27;;;3.90;98.60;;;3.71;61.56;95235.19;4964427;28;20499;-57
2023/12/05 04:35:34;;;;;;;12.67;7.60;;;3.90;98.60;;;3.75;62.02;95236.69;4966349;28;20475;-58
2023/12/05 04:38:01;;;;;;;12.97;8.63;;;3.90;98.60;;;3.81;61.92;95236.34;4968903;28;21353;-62
2023/12/05 04:40:28;;;;;;;9.90;7.40;;;4.00;98.70;;;3.84;61.76;95240.50;4966337;28;20483;-57
2023/12/05 04:42:56;;;;;;;9.83;7.27;;;4.00;98.50;;;3.84;61.90;95230.09;4966614;28;20474;-58
2023/12/05 04:45:25;;;;;;;18.00;7.77;;;4.00;98.40;;;3.87;61.61;95241.19;4963807;28;20886;-57
2023/12/05 04:47:52;;;;;;;10.93;7.60;;;4.10;98.40;;;3.91;61.10;95241.81;4966266;28;21023;-58
2023/12/05 04:50:20;;;;;;;11.00;6.70;;;4.00;98.30;;;3.92;61.39;95233.09;4968002;28;20478;-58
2023/12/05 04:52:47;;;;;;;7.90;6.30;;;4.10;98.30;;;3.97;61.47;95243.22;4966674;28;20495;-58
2023/12/05 04:55:15;;;;;;;15.03;6.20;;;4.10;98.40;;;4.02;61.55;95251.59;4964746;28;20567;-57
2023/12/05 04:57:42;;;;;;;8.27;6.17;;;4.20;98.40;;;4.07;61.30;95258.19;4966267;28;20467;-58
2023/12/05 05:00:12;;;;;;;7.27;5.43;;;4.20;98.30;;;4.12;61.04;95256.16;4965347;28;20491;-58
2023/12/05 05:02:41;;;;;;;9.13;6.33;;;4.30;98.30;;;4.18;61.10;95254.94;4966633;28;20998;-57
2023/12/05 05:05:09;;;;;;;7.97;5.73;;;4.30;98.30;;;4.24;61.10;95262.41;4965833;28;20471;-57
2023/12/05 05:07:36;;;;;;;7.40;6.57;;;4.40;98.20;;;4.27;61.21;95269.19;4968672;28;20451;-58
2023/12/05 05:10:04;;;;;;;7.00;5.90;;;4.40;98.00;;;4.31;61.08;95255.91;4965604;28;20554;-57
2023/12/05 05:12:31;;;;;;;10.50;6.67;;;4.40;97.90;;;4.35;61.41;95255.72;4964343;28;20484;-58
2023/12/05 05:14:58;;;;;;;9.17;6.40;;;4.50;97.90;;;4.38;60.97;95256.34;4968464;28;20499;-58
2023/12/05 05:17:26;;;;;;;11.90;5.87;;;4.50;97.80;;;4.41;60.75;95269.19;4965065;28;20459;-57
2023/12/05 05:19:55;;;;;;;8.97;6.00;;;4.60;97.90;;;4.44;60.45;95265.59;4966352;28;20471;-57
2023/12/05 05:22:22;;;;;;;9.50;5.77;;;4.60;97.60;;;4.44;60.59;95250.78;4964996;28;20980;-59
2023/12/05 05:24:50;;;;;;;9.93;6.50;;;4.60;97.60;;;4.45;60.33;95251.63;4967340;28;20531;-59
2023/12/05 05:27:17;;;;;;;11.87;7.23;;;4.60;97.50;;;4.44;60.33;95250.78;4963288;28;20475;-58
2023/12/05 05:29:45;;;;;;;10.33;6.10;;;4.60;97.50;;;4.43;60.28;95243.06;4965934;28;20491;-59
2023/12/05 05:32:12;;;;;;;7.53;6.47;;;4.60;97.40;;;4.42;60.34;95244.84;4963344;28;20483;-56
2023/12/05 05:34:39;;;;;;;11.80;7.00;;;4.60;97.40;;;4.42;60.50;95251.81;4963354;28;20479;-59
2023/12/05 05:37:08;;;;;;;10.40;7.60;;;4.60;97.50;;;4.42;60.78;95251.81;4966254;28;20521;-58
2023/12/05 05:39:35;;;;;;;19.20;9.83;;;4.50;97.50;;;4.42;60.32;95251.81;4965705;28;20478;-59
2023/12/05 05:42:03;;;;;;;24.93;12.67;;;4.60;97.40;;;4.42;60.43;95236.19;4965929;28;20455;-58
2023/12/05 05:44:30;;;;;;;40.13;14.43;;;4.60;97.40;;;4.42;60.35;95239.63;4962331;28;20471;-62
2023/12/05 05:46:58;;;;;;;22.03;12.70;;;4.60;97.40;;;4.42;60.11;95241.41;4967572;28;20985;-62
2023/12/05 05:49:25;;;;;;;28.40;13.83;;;4.60;97.30;;;4.42;60.71;95231.00;4966869;28;20500;-59
2023/12/05 05:51:52;;;;;;;12.50;8.63;;;4.50;97.40;;;4.42;60.52;95236.19;4967799;28;20891;-62
2023/12/05 05:54:21;;;;;;;11.57;9.27;;;4.50;97.30;;;4.38;60.21;95230.31;4961725;28;20558;-58
2023/12/05 05:56:49;;;;;;;16.47;8.70;;;4.50;97.10;;;4.33;60.17;95236.75;4966114;28;20448;-59
2023/12/05 05:59:16;;;;;;;14.83;8.70;;;4.50;97.20;;;4.31;60.38;95237.69;4965557;28;20487;-60
2023/12/05 06:01:43;;;;;;;14.33;7.67;;;4.50;97.30;;;4.31;60.47;95229.88;4968694;28;20822;-59
2023/12/05 06:04:11;;;;;;;11.97;7.73;;;4.50;97.40;;;4.31;60.44;95224.66;4970140;28;21003;-62
2023/12/05 06:06:38;;;;;;;16.20;7.70;;;4.50;97.40;;;4.33;60.45;95218.53;4970324;28;20491;-63
2023/12/05 06:09:06;;;;;;;10.97;7.23;;;4.50;97.30;;;4.31;60.33;95219.44;4956593;28;21012;-58
2023/12/05 06:11:34;;;;;;;18.77;7.63;;;4.50;97.30;;;4.31;60.58;95219.44;4966226;28;20906;-58
2023/12/05 06:14:03;;;;;;;13.33;6.33;;;4.50;97.40;;;4.30;60.45;95212.56;4966881;28;20505;-58
2023/12/05 06:16:31;;;;;;;11.30;7.87;;;4.50;97.40;;;4.30;60.58;95211.72;4968875;28;20471;-58
2023/12/05 06:18:58;;;;;;;10.80;8.30;;;4.50;97.40;;;4.26;60.47;95225.84;4967000;28;21016;-64
2023/12/05 06:21:25;;;;;;;15.90;9.30;;;4.40;97.30;;;4.24;60.48;95214.72;4966493;28;20824;-59
2023/12/05 06:23:54;;;;;;;12.00;8.30;;;4.40;97.40;;;4.24;60.63;95218.13;4970645;28;20596;-65
2023/12/05 06:26:21;;;;;;;15.33;8.50;;;4.40;97.60;;;4.26;60.71;95226.72;4970142;28;20527;-64
2023/12/05 06:28:50;;;;;;;12.23;8.57;;;4.40;97.60;;;4.29;60.70;95225.66;4966960;28;20483;-64
2023/12/05 06:31:17;;;;;;;11.17;7.53;;;4.40;97.70;;;4.31;60.81;95224.66;4969399;28;20574;-58
2023/12/05 06:33:44;;;;;;;12.00;8.90;;;4.50;97.80;;;4.35;60.74;95227.91;4965727;28;21145;-65
2023/12/05 06:36:13;;;;;;;13.13;9.30;;;4.50;97.80;;;4.39;60.85;95212.94;4969755;28;20554;-64
2023/12/05 06:38:41;;;;;;;26.23;12.27;;;4.50;97.80;;;4.41;60.83;95205.88;4966741;28;21250;-64
2023/12/05 06:41:09;;;;;;;25.63;11.30;;;4.50;97.80;;;4.44;60.86;95206.50;4969176;28;20475;-66
2023/12/05 06:43:36;;;;;;;19.07;11.57;;;4.60;97.90;;;4.48;61.03;95215.00;4969519;28;20917;-65
2023/12/05 06:46:06;;;;;;;18.30;11.27;;;4.60;97.90;;;4.51;60.70;95209.59;4966659;28;20479;-65
2023/12/05 06:48:34;;;;;;;20.43;12.27;;;4.60;97.90;;;4.56;60.69;95217.94;4967976;28;20463;-63
2023/12/05 06:51:02;;;;;;;18.23;12.00;;;4.70;97.90;;;4.61;60.57;95221.09;4966513;28;20483;-64
2023/12/05 06:53:29;;;;;;;18.60;10.00;;;4.70;97.90;;;4.65;60.66;95206.13;4968944;28;20491;-62
2023/12/05 06:55:57;;;;;;;32.33;12.60;;;4.80;98.10;;;4.70;60.62;95198.03;4968418;28;20467;-64
2023/12/05 06:58:24;;;;;;;22.60;12.30;;;4.80;97.70;;;4.77;60.47;95194.09;4966059;28;20479;-65
2023/12/05 07:00:51;;;;;;;20.70;12.97;;;4.90;97.70;;;4.83;60.69;95196.31;4968872;28;21016;-65
2023/12/05 07:03:22;;;;;;;23.83;12.17;;;5.00;97.70;;;4.90;60.55;95187.19;4969283;28;20522;-63
2023/12/05 07:05:49;;;;;;;13.40;9.87;;;5.00;97.50;;;4.95;60.21;95182.50;4967930;28;21118;-64
2023/12/05 07:08:18;;;;;;;15.30;10.00;;;5.10;97.30;;;4.95;60.11;95174.69;4968844;28;20482;-64
2023/12/05 07:10:45;;;;;;;19.67;10.67;;;5.10;97.10;;;4.97;59.99;95170.22;4968303;28;20582;-64
2023/12/05 07:13:13;;;;;;;14.43;10.37;;;5.10;97.00;;;5.01;59.73;95173.47;4966180;28;20494;-64
2023/12/05 07:15:40;;;;;;;13.93;9.27;;;5.20;97.10;;;5.06;59.75;95173.16;4968455;28;20497;-64
2023/12/05 07:18:07;;;;;;;18.07;10.73;;;5.20;97.00;;;5.12;59.47;95173.59;4967830;28;20472;-64
2023/12/05 07:20:36;;;;;;;13.03;8.50;;;5.20;96.90;;;5.17;59.70;95179.38;4968813;28;20582;-63
2023/12/05 07:23:04;;;;;;;19.10;9.93;;;5.30;96.80;;;5.23;59.47;95178.13;4970919;28;20479;-63
2023/12/05 07:25:31;;;;;;;10.77;7.63;;;5.30;96.70;;;5.28;59.16;95181.25;4967000;28;20482;-63
2023/12/05 07:27:58;;;;;;;17.60;10.00;;;5.40;96.60;;;5.32;59.37;95169.69;4965898;28;20490;-61
2023/12/05 07:30:25;;;;;;;24.33;10.53;;;5.40;96.60;;;5.41;63.04;95170.03;4967692;28;20956;-63
2023/12/05 07:32:53;;;;;;;17.30;10.53;;;5.50;99.90;;;5.52;60.71;95162.34;4964145;28;21272;-63
2023/12/05 07:35:20;;;;;;;15.60;10.87;;;5.60;98.30;;;5.60;60.01;95164.44;4970819;28;20466;-64
2023/12/05 07:37:49;;;;;;;22.00;11.27;;;5.70;97.40;;;5.66;59.82;95188.34;4972763;28;20471;-64
2023/12/05 07:40:17;;;;;;;14.67;10.10;;;5.80;97.10;;;5.71;58.90;95181.03;4972136;28;20470;-64
2023/12/05 07:42:45;;;;;;;16.90;11.07;;;5.80;96.70;;;5.78;58.70;95170.19;4975714;28;20806;-65
2023/12/05 07:45:13;;;;;;;13.10;8.87;;;5.90;96.60;;;5.83;58.95;95179.38;4973341;28;20775;-64
2023/12/05 07:47:43;;;;;;;26.23;9.63;;;5.90;96.40;;;5.90;58.69;95175.44;4969652;28;20463;-63
2023/12/05 07:50:13;;;;;;;15.37;9.80;;;6.00;96.20;;;5.93;58.57;95182.19;4965584;28;20476;-64
2023/12/05 07:52:41;;;;;;;17.20;10.13;;;6.00;96.10;;;5.98;58.42;95189.75;4968389;28;20534;-64
2023/12/05 07:55:10;;;;;;;20.80;13.30;;;6.10;95.90;;;6.01;58.20;95193.00;4966610;28;20487;-64
2023/12/05 07:57:37;;;;;;;29.63;15.67;;;6.10;95.90;;;6.03;57.97;95190.31;4969917;28;20514;-64
2023/12/05 08:00:10;;;;;;;33.23;16.70;;;6.10;95.80;;;6.00;57.73;95186.09;4963049;28;20506;-63
2023/12/05 08:02:38;;;;;;;34.47;18.57;;;6.10;95.60;;;5.93;58.46;95184.81;4960781;28;20476;-63
2023/12/05 08:05:07;;;;;;;38.17;18.17;;;6.10;96.10;;;5.87;58.32;95195.66;4969998;28;20472;-63
2023/12/05 08:07:34;;;;;;;41.83;17.47;;;6.00;95.90;;;5.84;58.71;95206.31;4972030;28;20877;-63
2023/12/05 08:10:01;;;;;;;31.27;17.47;;;5.90;96.20;;;5.84;58.88;95206.31;4969469;28;20472;-63
2023/12/05 08:12:30;;;;;;;36.23;17.80;;;5.90;96.10;;;5.86;58.58;95204.47;4972441;28;20968;-62
2023/12/05 08:14:57;;;;;;;28.40;16.20;;;5.90;96.10;;;5.89;59.18;95209.47;4963683;28;20570;-64
2023/12/05 08:17:25;;;;;;;41.30;16.43;;;6.00;96.30;;;5.91;58.75;95197.16;4966012;28;20519;-64
2023/12/05 08:19:52;;;;;;;31.80;14.70;;;6.00;96.20;;;5.98;58.50;95188.00;4963152;28;20500;-64
2023/12/05 08:22:21;;;;;;;26.13;13.93;;;6.00;96.10;;;6.01;58.75;95182.56;4965704;28;20476;-64
2023/12/05 08:24:49;;;;;;;26.53;14.83;;;6.10;95.90;;;6.03;58.54;95185.06;4966527;28;20474;-65
2023/12/05 08:27:16;;;;;;;26.33;13.50;;;6.10;95.90;;;6.05;58.26;95185.78;4965823;28;20495;-63
2023/12/05 08:29:45;;;;;;;21.87;11.80;;;6.10;95.80;;;6.06;58.33;95184.88;4964073;28;20475;-64
2023/12/05 08:32:12;;;;;;;21.30;11.57;;;6.10;95.60;;;6.07;58.32;95176.06;4965756;28;21005;-63
2023/12/05 08:34:40;;;;;;;28.87;12.87;;;6.20;95.70;;;6.09;58.34;95184.66;4964375;28;20549;-61
2023/12/05 08:37:08;;;;;;;19.23;13.10;;;6.20;95.50;;;6.10;58.10;95183.69;4966806;28;20889;-62
2023/12/05 08:39:35;;;;;;;19.90;12.80;;;6.20;95.60;;;6.14;58.15;95179.94;4964600;28;20525;-63
2023/12/05 08:42:03;;;;;;;25.20;12.20;;;6.30;95.70;;;6.21;58.35;95172.50;4967577;28;20449;-63
2023/12/05 08:44:31;;;;;;;19.77;12.47;;;6.30;95.70;;;6.30;58.02;95176.28;4960608;28;20463;-64
2023/12/05 08:47:00;;;;;;;22.77;12.40;;;6.40;95.70;;;6.40;57.99;95177.31;4963915;28;20500;-64
2023/12/05 08:49:27;;;;;;;24.30;12.23;;;6.40;95.70;;;6.50;58.03;95182.72;4966068;28;20824;-63
2023/12/05 08:51:55;;;;;;;18.00;11.67;;;6.50;95.40;;;6.52;57.21;95162.53;4962234;28;20593;-62
2023/12/05 08:54:22;;;;;;;25.30;12.80;;;6.60;95.20;;;6.60;57.04;95165.44;4967222;28;20530;-64
2023/12/05 08:56:50;;;;;;;16.97;11.97;;;6.70;95.10;;;6.62;57.58;95160.97;4963862;28;20924;-63
2023/12/05 08:59:18;;;;;;;16.57;12.57;;;6.70;94.90;;;6.71;57.12;95154.22;4962909;28;20593;-64
2023/12/05 09:01:48;;;;;;;24.70;12.87;;;6.80;94.90;;;6.80;56.69;95154.44;4962718;28;20551;-65
2023/12/05 09:04:17;;;;;;;24.67;13.40;;;6.90;94.80;;;6.98;57.33;95140.97;4963155;28;20482;-64
2023/12/05 09:06:44;;;;;;;17.77;11.10;;;7.00;95.00;;;7.35;56.91;95148.75;4960530;28;20517;-64
2023/12/05 09:09:12;;;;;;;25.97;13.13;;;7.30;94.70;;;7.87;55.61;95138.78;4959882;28;20472;-63
2023/12/05 09:11:39;;;;;;;20.57;13.30;;;7.70;94.60;;;8.26;54.91;95134.03;4965903;28;20559;-63
2023/12/05 09:14:06;;;;;;;24.40;13.83;;;8.10;94.30;;;8.52;54.82;95132.03;4959816;28;21348;-62
2023/12/05 09:16:34;;;;;;;27.53;13.93;;;8.40;93.10;;;8.68;54.47;95128.22;4966918;28;20475;-64
2023/12/05 09:19:02;;;;;;;29.80;15.33;;;8.60;92.80;;;8.96;53.84;95125.03;4963653;28;20928;-64
2023/12/05 09:21:30;;;;;;;31.40;15.10;;;8.90;92.40;;;9.11;53.04;95119.53;4961781;28;20470;-64
2023/12/05 09:23:58;;;;;;;32.80;14.50;;;9.00;91.50;;;9.21;53.09;95125.66;4963522;28;20470;-62
2023/12/05 09:26:25;;;;;;;19.70;13.77;;;9.10;91.20;;;9.42;52.67;95112.59;4960861;28;20468;-63
2023/12/05 09:28:53;;;;;;;29.07;12.70;;;9.30;90.90;;;9.61;52.70;95109.25;4964565;28;20467;-63
2023/12/05 09:31:20;;;;;;;25.73;12.50;;;9.50;90.60;;;9.74;51.95;95097.72;4965721;28;20482;-63
2023/12/05 09:33:47;;;;;;;20.20;12.47;;;9.60;90.40;;;9.86;51.58;95099.31;4956710;28;21047;-63
2023/12/05 09:36:15;;;;;;;20.20;12.00;;;9.80;90.00;;;10.01;51.80;95094.56;4962404;28;20451;-63
2023/12/05 09:38:43;;;;;;;20.57;12.13;;;9.90;89.20;;;10.30;51.75;95086.81;4960524;28;20486;-63
2023/12/05 09:41:11;;;;;;;26.97;11.60;;;10.20;88.70;;;10.67;50.95;95094.13;4965604;28;20846;-66
2023/12/05 09:43:39;;;;;;;19.63;12.40;;;10.50;88.10;;;11.01;50.25;95096.41;4962038;28;20476;-62
2023/12/05 09:46:08;;;;;;;16.93;12.50;;;10.80;86.50;;;11.27;49.78;95086.16;4962693;28;20578;-63
2023/12/05 09:48:41;;;;;;;19.80;11.33;;;11.10;85.30;;;11.38;49.26;95087.81;4962984;28;20483;-63
2023/12/05 09:51:09;;;;;;;28.40;11.67;;;11.20;83.10;;;11.41;48.99;95079.66;4959424;28;20484;-64
2023/12/05 09:53:36;;;;;;;19.47;12.10;;;11.30;81.90;;;11.47;49.17;95055.38;4965183;28;20570;-63
2023/12/05 09:56:06;;;;;;;18.23;12.20;;;11.40;82.10;;;11.56;49.29;95058.16;4958994;28;20475;-63
2023/12/05 09:58:33;;;;;;;26.30;14.10;;;11.50;82.00;;;11.64;48.71;95055.66;4962524;28;20490;-64
2023/12/05 10:01:01;;;;;;;34.53;16.40;;;11.60;81.50;;;11.72;48.42;95053.13;4964938;28;20471;-65
2023/12/05 10:03:30;;;;;;;33.30;12.30;;;11.60;80.90;;;11.75;48.00;95052.03;4956774;28;20995;-65
2023/12/05 10:05:58;;;;;;;18.50;10.83;;;11.70;79.60;;;11.59;47.93;95042.06;4965084;28;20932;-64
2023/12/05 10:08:26;;;;;;;20.20;11.50;;;11.60;78.10;;;11.34;48.20;95038.22;4957348;28;20467;-63
2023/12/05 10:10:54;;;;;;;15.83;10.60;;;11.30;78.30;;;11.04;48.83;95038.22;4966244;28;20498;-63
2023/12/05 10:13:23;;;;;;;11.57;8.90;;;11.10;79.00;;;10.75;49.17;95023.28;4961855;28;20984;-63
2023/12/05 10:15:50;;;;;;;18.93;10.70;;;10.90;79.30;;;10.62;49.94;95027.94;4964981;28;20475;-63
2023/12/05 10:18:18;;;;;;;18.20;9.73;;;10.70;80.40;;;10.49;48.33;95016.88;4966897;28;20492;-64
2023/12/05 10:20:46;;;;;;;19.83;9.27;;;10.50;78.10;;;10.28;50.18;95009.84;4961189;28;20467;-62
2023/12/05 10:23:14;;;;;;;18.33;9.50;;;10.40;80.70;;;10.15;50.24;95009.28;4966258;28;20467;-62
2023/12/05 10:25:43;;;;;;;19.30;8.93;;;10.20;81.10;;;10.20;50.71;94992.13;4963800;28;20508;-63
2023/12/05 10:28:12;;;;;;;18.07;9.10;;;10.20;82.10;;;10.43;50.24;94991.13;4963255;28;20486;-63